Time;durP1;ratioP1;P1;durP2;ratioP2;P2;SDS_P1;SDS_P2;PMS_P1;PMS_P2;Temp;Humidity;BMP_temperature;BMP_pressure;BME280_temperature;BME280_humidity;BME280_pressure;Samples;Min_cycle;Max_cycle;Signal;HPM_P1;HPM_P2
2022/11/17 00:01:07;;;;;;;19.08;10.38;;;8.50;99.90;;;;;;5092487;28;20067;-90
2022/11/17 00:03:33;;;;;;;28.05;17.45;;;8.50;99.90;;;;;;5112891;27;20040;-89
2022/11/17 00:06:05;;;;;;;25.15;15.52;;;8.40;99.90;;;;;;5115971;27;20043;-89
2022/11/17 00:08:30;;;;;;;14.07;10.40;;;8.50;99.90;;;;;;5085587;28;20040;-90
2022/11/17 00:11:03;;;;;;;19.42;13.38;;;8.70;99.90;;;;;;5098188;27;20075;-91
2022/11/17 00:16:13;;;;;;;21.92;12.70;;;8.50;99.90;;;;;;5099277;28;20051;-91
2022/11/17 00:21:27;;;;;;;21.08;13.80;;;8.50;99.90;;;;;;5113456;27;20126;-89
2022/11/17 00:23:53;;;;;;;23.20;15.15;;;8.50;99.90;;;;;;5095496;28;20048;-90
2022/11/17 00:26:24;;;;;;;15.00;9.77;;;8.50;99.90;;;;;;5092028;28;20056;-90
2022/11/17 00:28:57;;;;;;;16.80;11.23;;;8.70;99.90;;;;;;5096094;28;20035;-91
2022/11/17 00:34:10;;;;;;;13.52;9.00;;;8.60;99.90;;;;;;5108652;28;20101;-90
2022/11/17 00:36:54;;;;;;;19.08;14.38;;;8.70;99.90;;;;;;5103159;28;20074;-90
2022/11/17 00:39:20;;;;;;;23.45;15.68;;;8.70;99.90;;;;;;5108256;28;20031;-88
2022/11/17 00:41:48;;;;;;;20.90;15.50;;;8.50;99.90;;;;;;5117495;28;20043;-87
2022/11/17 00:44:14;;;;;;;19.95;14.65;;;8.40;99.90;;;;;;5114038;28;20105;-90
2022/11/17 00:46:40;;;;;;;21.42;15.52;;;8.40;99.90;;;;;;5095688;28;20044;-90
2022/11/17 00:49:06;;;;;;;17.67;11.98;;;8.60;99.90;;;;;;5096405;28;20063;-86
2022/11/17 00:51:32;;;;;;;18.38;13.80;;;8.50;99.90;;;;;;5095495;28;20080;-89
2022/11/17 00:53:58;;;;;;;19.83;13.63;;;9.70;99.90;;;;;;5088733;28;20316;-88
2022/11/17 00:56:24;;;;;;;17.67;13.07;;;8.50;99.90;;;;;;5083187;28;20044;-88
2022/11/17 00:58:50;;;;;;;13.98;11.93;;;8.40;99.90;;;;;;5084272;28;20043;-87
2022/11/17 01:01:16;;;;;;;18.00;12.75;;;8.50;99.90;;;;;;5102232;28;20027;-88
2022/11/17 01:03:42;;;;;;;15.43;12.00;;;9.10;99.90;;;;;;5112586;28;20111;-90
2022/11/17 01:06:12;;;;;;;16.73;11.65;;;9.80;99.90;;;;;;5096167;28;20055;-89
2022/11/17 01:08:38;;;;;;;19.25;14.10;;;8.70;99.90;;;;;;5096292;28;20079;-89
2022/11/17 01:11:14;;;;;;;19.45;13.38;;;8.60;99.90;;;;;;5103255;28;20050;-89
2022/11/17 01:13:40;;;;;;;19.80;14.30;;;8.50;99.90;;;;;;5114344;28;20078;-88
2022/11/17 01:16:08;;;;;;;19.40;14.55;;;8.40;99.90;;;;;;5114716;28;20048;-88
2022/11/17 01:18:35;;;;;;;15.40;11.43;;;8.50;99.90;;;;;;5093524;28;20130;-90
2022/11/17 01:21:09;;;;;;;19.67;13.57;;;8.60;99.90;;;;;;5095799;28;20039;-89
2022/11/17 01:23:39;;;;;;;24.23;11.98;;;8.50;99.90;;;;;;5123800;28;20433;-92
2022/11/17 01:26:07;;;;;;;18.30;10.98;;;8.50;99.90;;;;;;5098758;28;20044;-91
2022/11/17 01:28:33;;;;;;;15.18;10.35;;;8.50;99.90;;;;;;5111715;28;20079;-90
2022/11/17 01:31:00;;;;;;;18.35;14.15;;;8.90;99.90;;;;;;5128109;27;20443;-91
2022/11/17 01:33:26;;;;;;;16.98;10.55;;;8.50;99.90;;;;;;5098506;28;20127;-90
2022/11/17 01:35:51;;;;;;;13.52;10.38;;;8.70;99.90;;;;;;5166274;22;20061;-89
2022/11/17 01:38:17;;;;;;;15.93;11.68;;;8.60;99.90;;;;;;5050855;28;20041;-89
2022/11/17 01:40:43;;;;;;;14.20;9.73;;;8.50;99.90;;;;;;5029737;28;20532;-92
2022/11/17 01:43:10;;;;;;;16.98;13.82;;;8.70;99.90;;;;;;5027289;28;20045;-89
2022/11/17 01:45:35;;;;;;;18.00;12.25;;;8.60;99.90;;;;;;5017408;28;20045;-87
2022/11/17 01:48:01;;;;;;;17.05;13.52;;;8.50;99.90;;;;;;5015275;28;20051;-91
2022/11/17 01:50:34;;;;;;;16.42;12.10;;;8.60;99.90;;;;;;5028350;28;20131;-90
2022/11/17 01:53:01;;;;;;;14.45;10.13;;;8.60;99.90;;;;;;5048332;28;20049;-89
2022/11/17 01:55:35;;;;;;;14.95;10.88;;;9.20;99.90;;;;;;5050680;28;20070;-88
2022/11/17 01:58:12;;;;;;;11.57;8.35;;;8.60;99.90;;;;;;5057924;28;20057;-88
2022/11/17 02:00:38;;;;;;;15.60;11.48;;;8.60;99.90;;;;;;5029538;28;20033;-89
2022/11/17 02:03:06;;;;;;;13.38;10.30;;;8.60;99.90;;;;;;5010708;28;20087;-89
2022/11/17 02:05:38;;;;;;;19.45;12.27;;;8.50;99.90;;;;;;5030553;28;20045;-90
2022/11/17 02:08:05;;;;;;;18.83;14.02;;;8.50;99.90;;;;;;5026499;28;20060;-87
2022/11/17 02:10:31;;;;;;;18.58;12.80;;;8.40;99.90;;;;;;5034704;28;20041;-89
2022/11/17 02:13:00;;;;;;;19.25;13.65;;;8.40;99.90;;;;;;5034120;28;20056;-89
2022/11/17 02:15:27;;;;;;;12.60;9.55;;;8.40;99.90;;;;;;5034490;28;20049;-87
2022/11/17 02:17:53;;;;;;;18.48;11.13;;;8.50;99.90;;;;;;5034264;28;20127;-87
2022/11/17 02:20:26;;;;;;;13.85;10.50;;;8.60;99.90;;;;;;5052051;28;20076;-85
2022/11/17 02:23:09;;;;;;;18.33;12.15;;;8.70;99.90;;;;;;5034200;28;20098;-89
2022/11/17 02:26:10;;;;;;;14.52;11.60;;;8.50;99.90;;;;;;5036162;28;20102;-90
2022/11/17 02:29:05;;;;;;;15.90;11.82;;;8.40;99.90;;;;;;5046993;28;20076;-88
2022/11/17 02:32:03;;;;;;;17.13;11.35;;;8.30;99.90;;;;;;5032007;28;20041;-88
2022/11/17 02:34:54;;;;;;;19.40;13.63;;;8.20;99.90;;;;;;5062332;28;20021;-87
2022/11/17 02:37:23;;;;;;;19.85;14.30;;;8.20;99.90;;;;;;5055776;28;20041;-88
2022/11/17 02:39:59;;;;;;;19.55;15.07;;;8.30;99.90;;;;;;5032067;28;20061;-89
2022/11/17 02:45:19;;;;;;;23.08;15.65;;;8.90;99.90;;;;;;5030425;28;20086;-91
2022/11/17 02:47:46;;;;;;;21.13;15.98;;;8.20;99.90;;;;;;5023036;28;20056;-87
2022/11/17 02:50:11;;;;;;;20.65;14.05;;;8.20;99.90;;;;;;5022209;28;20053;-90
2022/11/17 02:52:37;;;;;;;18.42;12.93;;;8.20;99.90;;;;;;5038514;28;20463;-89
2022/11/17 02:55:06;;;;;;;18.50;14.02;;;8.20;99.90;;;;;;5038204;28;20041;-90
2022/11/17 02:57:33;;;;;;;20.67;15.27;;;8.00;99.90;;;;;;5038683;28;20048;-88
2022/11/17 03:00:18;;;;;;;21.77;16.05;;;8.10;99.90;;;;;;5037883;28;20401;-89
2022/11/17 03:03:08;;;;;;;24.10;14.95;;;8.00;99.90;;;;;;5039789;28;20455;-87
2022/11/17 03:05:39;;;;;;;17.73;13.63;;;8.00;99.90;;;;;;5040846;28;20052;-88
2022/11/17 03:08:14;;;;;;;21.25;15.45;;;8.00;99.90;;;;;;5034820;28;20068;-88
2022/11/17 03:11:02;;;;;;;33.42;17.95;;;8.00;99.90;;;;;;5067062;28;20134;-89
2022/11/17 03:13:53;;;;;;;23.35;16.05;;;7.80;99.90;;;;;;5056802;28;20083;-90
2022/11/17 03:16:29;;;;;;;23.35;15.30;;;7.90;99.90;;;;;;5043595;28;20073;-91
2022/11/17 03:19:01;;;;;;;22.20;16.98;;;7.90;99.90;;;;;;5037946;28;20049;-91
2022/11/17 03:21:45;;;;;;;20.30;13.48;;;7.80;99.90;;;;;;5054511;28;20067;-91
2022/11/17 03:24:15;;;;;;;26.00;17.85;;;7.90;99.90;;;;;;5041429;28;20074;-91
2022/11/17 03:26:51;;;;;;;24.90;17.92;;;7.80;99.90;;;;;;5037847;28;20448;-91
2022/11/17 03:29:18;;;;;;;22.10;16.00;;;7.90;99.90;;;;;;5008429;28;20041;-92
2022/11/17 03:31:44;;;;;;;20.65;13.93;;;7.80;99.90;;;;;;5037989;28;20493;-91
2022/11/17 03:34:14;;;;;;;20.85;15.85;;;7.70;99.90;;;;;;5037758;28;20041;-92
2022/11/17 03:36:42;;;;;;;20.15;14.40;;;7.70;99.90;;;;;;5037122;28;20127;-89
2022/11/17 03:39:36;;;;;;;21.25;15.88;;;8.60;99.90;;;;;;5037266;28;20561;-91
2022/11/17 03:42:12;;;;;;;23.73;17.35;;;7.70;99.90;;;;;;5041311;28;20079;-91
2022/11/17 03:44:39;;;;;;;22.27;15.60;;;7.60;99.90;;;;;;5029511;28;20049;-92
2022/11/17 03:47:05;;;;;;;20.27;15.32;;;7.60;99.90;;;;;;5027985;28;20088;-89
2022/11/17 03:49:50;;;;;;;18.55;11.00;;;7.60;99.90;;;;;;5015524;28;20037;-91
2022/11/17 03:52:16;;;;;;;19.92;14.88;;;7.60;99.90;;;;;;5031575;28;20049;-91
2022/11/17 03:54:44;;;;;;;18.50;13.02;;;7.50;99.90;;;;;;5052586;28;20048;-92
2022/11/17 03:57:19;;;;;;;21.55;14.52;;;7.50;99.90;;;;;;5025016;28;20531;-88
2022/11/17 03:59:45;;;;;;;;;;;7.50;99.90;;;;;;5053505;28;20786;-89
2022/11/17 04:02:18;;;;;;;18.25;14.18;;;7.50;99.90;;;;;;5032340;28;19925;-90
2022/11/17 04:07:27;;;;;;;19.33;14.60;;;7.30;99.90;;;;;;5025409;28;20099;-89
2022/11/17 04:09:53;;;;;;;22.45;15.50;;;7.40;99.90;;;;;;5036347;28;20084;-87
2022/11/17 04:17:47;;;;;;;19.85;14.27;;;7.30;99.90;;;;;;5024572;28;20083;-90
2022/11/17 04:20:13;;;;;;;21.45;14.27;;;7.30;99.90;;;;;;5052260;28;20422;-90
2022/11/17 04:22:40;;;;;;;22.75;14.82;;;7.30;99.90;;;;;;5015706;28;20128;-89
2022/11/17 04:25:06;;;;;;;18.40;13.02;;;7.30;99.90;;;;;;5035580;28;20053;-88
2022/11/17 04:30:16;;;;;;;16.73;11.88;;;7.20;99.90;;;;;;5044024;28;20055;-87
2022/11/17 04:32:41;;;;;;;22.25;15.57;;;7.30;99.90;;;;;;5039121;28;20021;-87
2022/11/17 04:35:07;;;;;;;16.80;10.05;;;7.20;99.90;;;;;;5049148;28;20049;-90
2022/11/17 04:37:33;;;;;;;18.35;12.70;;;7.20;99.90;;;;;;5020369;28;20114;-87
2022/11/17 04:39:58;;;;;;;12.63;9.43;;;8.70;99.90;;;;;;5031581;28;20106;-88
2022/11/17 04:42:24;;;;;;;21.67;13.90;;;7.20;99.90;;;;;;5035330;28;20512;-88
2022/11/17 04:44:50;;;;;;;18.25;12.82;;;7.40;99.90;;;;;;5018742;28;20057;-88
2022/11/17 04:47:21;;;;;;;19.80;14.43;;;7.10;99.90;;;;;;5050454;28;20091;-89
2022/11/17 04:49:47;;;;;;;15.57;12.15;;;8.60;99.90;;;;;;5022732;28;20040;-89
2022/11/17 04:52:12;;;;;;;17.02;12.18;;;7.00;99.90;;;;;;5030865;28;20693;-90
2022/11/17 04:54:38;;;;;;;14.57;10.80;;;7.00;99.90;;;;;;5035203;28;20057;-87
2022/11/17 04:57:04;;;;;;;14.98;10.70;;;7.00;99.90;;;;;;5051112;28;20051;-89
2022/11/17 04:59:30;;;;;;;15.73;10.50;;;6.90;99.90;;;;;;5019025;28;20045;-88
2022/11/17 05:01:55;;;;;;;20.38;13.55;;;6.90;99.90;;;;;;5051402;28;20098;-89
2022/11/17 05:07:08;;;;;;;20.73;14.30;;;8.10;99.90;;;;;;5023504;28;20437;-86
2022/11/17 05:09:34;;;;;;;16.40;11.23;;;6.80;99.90;;;;;;5023454;28;20478;-86
2022/11/17 05:14:46;;;;;;;14.52;10.27;;;6.90;99.90;;;;;;5037727;28;20053;-87
2022/11/17 05:17:12;;;;;;;18.08;11.85;;;7.30;99.90;;;;;;5034576;28;20503;-88
2022/11/17 05:19:44;;;;;;;19.50;12.85;;;8.50;99.90;;;;;;5034771;28;20041;-88
2022/11/17 05:24:56;;;;;;;20.35;14.13;;;6.80;99.90;;;;;;5038095;28;20092;-88
2022/11/17 05:27:22;;;;;;;20.13;12.77;;;6.70;99.90;;;;;;5031407;28;20045;-87
2022/11/17 05:29:47;;;;;;;18.15;12.77;;;6.70;99.90;;;;;;5034506;28;20048;-87
2022/11/17 05:32:13;;;;;;;18.02;12.60;;;6.70;99.90;;;;;;5034145;28;20076;-88
2022/11/17 05:34:42;;;;;;;14.23;10.85;;;7.50;99.90;;;;;;5051289;28;20037;-88
2022/11/17 05:37:07;;;;;;;20.83;13.57;;;6.70;99.90;;;;;;5033948;28;20140;-87
2022/11/17 05:39:33;;;;;;;11.35;7.90;;;6.70;99.90;;;;;;5034973;28;20081;-89
2022/11/17 05:41:58;;;;;;;17.58;12.10;;;6.70;99.90;;;;;;5018294;28;20037;-87
2022/11/17 05:44:24;;;;;;;19.38;13.73;;;6.70;99.90;;;;;;5044896;28;20082;-88
2022/11/17 05:46:56;;;;;;;16.08;11.50;;;6.60;99.90;;;;;;5044857;28;20163;-86
2022/11/17 05:49:21;;;;;;;15.27;10.23;;;6.70;99.90;;;;;;5074332;28;20029;-87
2022/11/17 05:51:47;;;;;;;14.07;11.32;;;7.00;99.90;;;;;;5026684;28;20049;-88
2022/11/17 05:54:13;;;;;;;13.93;11.02;;;6.70;99.90;;;;;;5034334;28;20068;-88
2022/11/17 05:56:46;;;;;;;14.02;10.38;;;6.60;99.90;;;;;;5036121;28;20052;-89
2022/11/17 05:59:22;;;;;;;19.20;10.27;;;6.60;99.90;;;;;;5054594;28;20067;-87
2022/11/17 06:01:56;;;;;;;9.70;8.30;;;6.60;99.90;;;;;;5041606;28;20037;-89
2022/11/17 06:04:21;;;;;;;15.45;10.68;;;6.80;99.90;;;;;;5058768;28;20025;-88
2022/11/17 06:06:47;;;;;;;14.98;10.68;;;6.60;99.90;;;;;;5062155;28;20028;-87
2022/11/17 06:09:13;;;;;;;15.75;10.98;;;6.60;99.90;;;;;;5049466;28;20073;-87
2022/11/17 06:11:40;;;;;;;11.38;7.70;;;6.60;99.90;;;;;;5023772;28;20084;-88
2022/11/17 06:14:06;;;;;;;14.15;10.88;;;6.30;99.90;;;;;;5038709;28;20089;-90
2022/11/17 06:16:34;;;;;;;12.02;8.80;;;6.60;99.90;;;;;;5054929;28;20041;-88
2022/11/17 06:19:02;;;;;;;11.63;8.30;;;6.60;99.90;;;;;;5022348;28;20052;-88
2022/11/17 06:21:28;;;;;;;13.73;10.40;;;7.20;99.90;;;;;;5021753;28;20052;-87
2022/11/17 06:23:54;;;;;;;11.10;7.78;;;6.90;99.90;;;;;;5038266;28;20041;-88
2022/11/17 06:26:19;;;;;;;12.15;9.88;;;7.20;99.90;;;;;;5038102;28;20135;-87
2022/11/17 06:28:46;;;;;;;12.48;9.57;;;6.60;99.90;;;;;;5038913;28;20391;-88
2022/11/17 06:31:12;;;;;;;13.02;9.20;;;6.60;99.90;;;;;;5021671;28;20056;-89
2022/11/17 06:33:37;;;;;;;14.00;9.23;;;6.80;99.90;;;;;;5034887;28;20053;-88
2022/11/17 06:36:04;;;;;;;12.32;8.80;;;7.60;99.90;;;;;;5024153;28;20398;-91
2022/11/17 06:38:32;;;;;;;13.60;10.30;;;6.60;99.90;;;;;;5017125;28;20099;-93
2022/11/17 06:40:58;;;;;;;12.07;9.43;;;6.50;99.90;;;;;;5022890;28;20429;-89
2022/11/17 06:43:23;;;;;;;10.73;8.38;;;6.60;99.90;;;;;;5028347;28;20118;-92
2022/11/17 06:45:49;;;;;;;9.45;7.80;;;6.70;99.90;;;;;;5032277;28;20049;-89
2022/11/17 06:48:24;;;;;;;9.07;6.35;;;6.60;99.90;;;;;;5039770;28;20060;-92
2022/11/17 06:50:49;;;;;;;13.75;9.93;;;5.20;99.90;;;;;;5039407;28;20128;-92
2022/11/17 06:53:15;;;;;;;13.32;11.25;;;6.60;99.90;;;;;;5002287;28;20179;-91
2022/11/17 06:55:41;;;;;;;11.15;8.68;;;7.30;99.90;;;;;;5037732;28;20048;-91
2022/11/17 06:58:07;;;;;;;11.15;9.75;;;6.60;99.90;;;;;;5054385;28;20037;-92
2022/11/17 07:00:34;;;;;;;10.35;8.52;;;6.60;99.90;;;;;;5050394;28;20208;-90
2022/11/17 07:03:12;;;;;;;13.50;10.55;;;7.30;99.90;;;;;;5044823;28;20032;-91
2022/11/17 07:05:37;;;;;;;11.88;9.50;;;6.60;99.90;;;;;;5039868;28;20025;-90
2022/11/17 07:08:04;;;;;;;10.90;8.35;;;6.60;99.90;;;;;;5018684;28;20075;-92
2022/11/17 07:10:30;;;;;;;10.88;7.53;;;6.50;99.90;;;;;;5020978;28;20048;-91
2022/11/17 07:12:57;;;;;;;15.82;11.60;;;6.50;99.90;;;;;;5028739;28;20433;-91
2022/11/17 07:15:22;;;;;;;10.82;8.80;;;6.50;99.90;;;;;;5034573;28;20076;-89
2022/11/17 07:17:49;;;;;;;11.18;8.75;;;6.60;99.90;;;;;;5019386;28;20115;-90
2022/11/17 07:20:15;;;;;;;12.98;8.00;;;7.40;99.90;;;;;;5038263;28;20124;-90
2022/11/17 07:22:41;;;;;;;13.15;11.10;;;6.70;99.90;;;;;;5054642;28;20116;-91
2022/11/17 07:25:07;;;;;;;11.88;8.73;;;6.60;99.90;;;;;;5038876;28;20076;-93
2022/11/17 07:27:33;;;;;;;11.32;9.00;;;6.70;99.90;;;;;;5025427;28;20033;-90
2022/11/17 07:29:58;;;;;;;10.35;8.57;;;6.60;99.90;;;;;;5038021;28;20056;-92
2022/11/17 07:32:24;;;;;;;11.30;8.10;;;6.60;99.90;;;;;;5052152;28;20481;-87
2022/11/17 07:34:50;;;;;;;11.85;9.73;;;6.60;99.90;;;;;;5051180;28;20064;-90
2022/11/17 07:37:16;;;;;;;8.75;7.55;;;6.60;99.90;;;;;;5046210;28;20068;-90
2022/11/17 07:39:41;;;;;;;8.73;6.97;;;6.60;99.90;;;;;;5058749;28;20041;-85
2022/11/17 07:42:10;;;;;;;7.75;6.47;;;7.70;99.90;;;;;;5039127;28;20060;-88
2022/11/17 07:44:36;;;;;;;9.65;7.68;;;6.80;99.90;;;;;;5019186;28;20474;-87
2022/11/17 07:47:01;;;;;;;11.20;8.05;;;6.60;99.90;;;;;;5037320;28;20443;-88
2022/11/17 07:49:27;;;;;;;10.05;8.27;;;6.80;99.90;;;;;;5045671;28;20052;-87
2022/11/17 07:51:53;;;;;;;10.25;7.97;;;6.60;99.90;;;;;;5039587;28;20102;-89
2022/11/17 07:54:19;;;;;;;11.07;7.22;;;6.50;99.90;;;;;;5039585;28;20108;-90
2022/11/17 07:56:44;;;;;;;9.48;8.10;;;6.50;99.90;;;;;;5035051;28;20526;-89
2022/11/17 07:59:10;;;;;;;10.35;7.57;;;6.50;99.90;;;;;;5018931;28;20045;-90
2022/11/17 08:01:36;;;;;;;7.45;6.10;;;6.50;99.90;;;;;;5034226;28;20048;-92
2022/11/17 08:04:04;;;;;;;10.90;8.85;;;6.60;99.90;;;;;;5032572;28;20040;-91
2022/11/17 08:06:29;;;;;;;6.57;4.93;;;7.20;99.90;;;;;;5013696;28;20548;-87
2022/11/17 08:08:55;;;;;;;10.57;8.68;;;6.60;99.90;;;;;;5043278;28;20048;-89
2022/11/17 08:11:21;;;;;;;9.43;8.13;;;6.50;99.90;;;;;;5052590;28;20392;-88
2022/11/17 08:13:55;;;;;;;7.78;6.45;;;7.40;99.90;;;;;;5026917;28;20087;-88
2022/11/17 08:16:21;;;;;;;9.00;7.35;;;6.60;99.90;;;;;;5049605;28;20048;-88
2022/11/17 08:18:47;;;;;;;9.30;8.15;;;7.60;99.90;;;;;;5048269;28;20041;-89
2022/11/17 08:21:13;;;;;;;5.55;5.05;;;6.60;99.90;;;;;;5049453;28;20118;-88
2022/11/17 08:23:39;;;;;;;9.68;7.90;;;6.60;99.90;;;;;;5030404;28;20049;-88
2022/11/17 08:26:07;;;;;;;8.00;7.00;;;6.20;99.90;;;;;;5022841;28;20041;-86
2022/11/17 08:28:32;;;;;;;10.70;8.55;;;7.20;99.90;;;;;;5018787;28;20046;-86
2022/11/17 08:31:02;;;;;;;9.88;8.85;;;6.70;99.90;;;;;;5036368;28;20099;-87
2022/11/17 08:33:28;;;;;;;11.20;9.50;;;6.60;99.90;;;;;;5019610;28;20409;-87
2022/11/17 08:36:00;;;;;;;9.13;7.43;;;6.60;99.90;;;;;;5016206;28;20057;-88
2022/11/17 08:38:27;;;;;;;9.73;7.88;;;6.70;99.90;;;;;;5011088;28;20076;-88
2022/11/17 08:41:04;;;;;;;15.82;8.57;;;6.60;99.90;;;;;;5033035;28;20051;-87
2022/11/17 08:43:30;;;;;;;12.90;8.90;;;6.70;99.90;;;;;;5032363;28;20041;-90
2022/11/17 08:45:56;;;;;;;11.18;8.50;;;7.10;99.90;;;;;;5034496;28;20128;-88
2022/11/17 08:48:21;;;;;;;11.18;8.88;;;6.60;99.90;;;;;;5022065;28;20099;-89
2022/11/17 08:50:47;;;;;;;9.85;8.55;;;6.60;99.90;;;;;;5035757;28;20445;-91
2022/11/17 08:53:17;;;;;;;9.90;7.78;;;7.80;99.90;;;;;;5035206;28;20132;-88
2022/11/17 08:55:43;;;;;;;11.05;7.80;;;6.70;99.90;;;;;;5035861;28;20045;-88
2022/11/17 08:58:09;;;;;;;12.73;10.45;;;6.70;99.90;;;;;;5035529;28;20052;-89
2022/11/17 09:00:35;;;;;;;11.30;8.00;;;6.80;99.90;;;;;;5052766;28;20049;-91
2022/11/17 09:03:05;;;;;;;6.75;5.13;;;6.70;99.90;;;;;;5054331;28;20405;-90
2022/11/17 09:05:31;;;;;;;10.98;9.05;;;7.10;99.90;;;;;;5036890;28;20037;-89
2022/11/17 09:07:58;;;;;;;10.50;8.00;;;6.70;99.90;;;;;;5054057;28;20470;-91
2022/11/17 09:10:23;;;;;;;11.95;9.30;;;6.70;99.90;;;;;;5019944;28;20056;-91
2022/11/17 09:12:49;;;;;;;10.73;8.85;;;6.70;99.90;;;;;;5025474;28;20053;-91
2022/11/17 09:15:15;;;;;;;11.80;9.77;;;6.70;99.90;;;;;;5034299;28;20055;-89
2022/11/17 09:17:42;;;;;;;10.15;8.05;;;6.60;99.90;;;;;;5068373;28;20048;-88
2022/11/17 09:20:08;;;;;;;9.38;8.38;;;8.10;99.90;;;;;;5072408;28;20045;-89
2022/11/17 09:22:33;;;;;;;8.82;6.85;;;6.80;99.90;;;;;;5075219;28;20041;-88
2022/11/17 09:24:59;;;;;;;7.78;6.75;;;6.70;99.90;;;;;;5041788;28;20023;-89
2022/11/17 09:27:25;;;;;;;7.95;6.38;;;6.60;99.90;;;;;;5058228;28;20043;-88
2022/11/17 09:29:51;;;;;;;8.15;7.07;;;7.30;99.90;;;;;;5058984;28;20047;-90
2022/11/17 09:32:18;;;;;;;7.78;6.28;;;7.80;99.90;;;;;;5071641;28;20052;-88
2022/11/17 09:34:43;;;;;;;7.05;6.20;;;6.70;99.90;;;;;;5055568;28;20045;-88
2022/11/17 09:37:10;;;;;;;6.50;5.82;;;6.80;99.90;;;;;;5058745;28;20033;-88
2022/11/17 09:39:35;;;;;;;7.35;5.43;;;6.80;99.90;;;;;;5055660;28;20432;-90
2022/11/17 09:42:01;;;;;;;11.20;9.43;;;7.70;99.90;;;;;;5035746;28;20045;-91
2022/11/17 09:44:33;;;;;;;8.63;7.07;;;6.70;99.90;;;;;;5026852;28;20371;-88
2022/11/17 09:47:18;;;;;;;6.63;5.35;;;6.70;99.90;;;;;;5024739;28;20057;-88
2022/11/17 09:50:23;;;;;;;7.03;6.32;;;6.70;99.90;;;;;;5057511;28;20046;-89
2022/11/17 09:53:10;;;;;;;9.40;7.55;;;6.70;99.90;;;;;;5055914;28;20064;-89
2022/11/17 09:55:36;;;;;;;9.50;6.90;;;6.70;99.90;;;;;;5029213;28;20044;-86
2022/11/17 09:58:28;;;;;;;6.55;5.75;;;6.70;99.90;;;;;;5040609;28;20053;-88
2022/11/17 10:00:56;;;;;;;9.73;8.15;;;6.70;99.90;;;;;;5039481;28;20056;-90
2022/11/17 10:03:31;;;;;;;9.20;7.85;;;6.70;99.90;;;;;;5023597;28;20037;-88
2022/11/17 10:05:57;;;;;;;10.95;7.95;;;6.70;99.90;;;;;;5040905;28;20048;-91
2022/11/17 10:08:54;;;;;;;10.45;7.95;;;6.70;99.90;;;;;;5026395;28;20477;-89
2022/11/17 10:11:32;;;;;;;10.57;8.00;;;6.70;99.90;;;;;;5037060;28;20053;-89
2022/11/17 10:14:07;;;;;;;7.53;6.13;;;6.70;99.90;;;;;;5040505;28;20049;-89
2022/11/17 10:16:32;;;;;;;6.95;5.55;;;6.70;99.90;;;;;;5038765;28;20060;-89
2022/11/17 10:19:21;;;;;;;8.40;7.20;;;6.80;99.90;;;;;;5023107;28;20063;-89
2022/11/17 10:22:02;;;;;;;8.43;7.18;;;6.80;99.90;;;;;;5043603;28;20048;-89
2022/11/17 10:24:36;;;;;;;7.07;6.03;;;6.80;99.90;;;;;;5075326;28;20024;-87
2022/11/17 10:27:14;;;;;;;8.55;6.60;;;6.80;99.90;;;;;;5041207;28;20088;-89
2022/11/17 10:30:18;;;;;;;8.70;7.15;;;6.70;99.90;;;;;;5023657;28;20186;-91
2022/11/17 10:32:51;;;;;;;6.95;5.97;;;6.80;99.90;;;;;;5030457;28;20072;-91
2022/11/17 10:35:22;;;;;;;9.87;8.00;;;6.80;99.90;;;;;;5026539;28;20057;-89
2022/11/17 10:38:05;;;;;;;10.38;8.02;;;6.70;99.90;;;;;;5005579;28;20056;-89
2022/11/17 10:40:37;;;;;;;11.40;8.63;;;6.80;99.90;;;;;;5055371;28;20057;-86
2022/11/17 10:43:12;;;;;;;8.43;7.38;;;6.70;99.90;;;;;;5049568;28;20044;-88
2022/11/17 10:45:50;;;;;;;9.55;8.07;;;6.80;99.90;;;;;;5031073;28;20040;-89
2022/11/17 10:48:38;;;;;;;10.45;7.65;;;6.70;99.90;;;;;;5031007;28;20136;-89
2022/11/17 10:51:07;;;;;;;8.52;6.78;;;6.80;99.90;;;;;;5052012;28;20116;-89
2022/11/17 10:53:37;;;;;;;8.23;6.30;;;6.70;99.90;;;;;;5067670;28;20045;-86
2022/11/17 10:56:11;;;;;;;7.72;6.45;;;6.90;99.90;;;;;;5046229;28;20052;-86
2022/11/17 10:59:01;;;;;;;6.55;5.80;;;6.90;99.90;;;;;;5029050;28;20427;-85
2022/11/17 11:01:35;;;;;;;7.28;6.07;;;6.80;99.90;;;;;;5067905;28;20057;-87
2022/11/17 11:04:01;;;;;;;7.07;5.55;;;6.80;99.90;;;;;;5020851;28;20045;-87
2022/11/17 11:06:28;;;;;;;8.05;6.57;;;8.30;99.90;;;;;;5066599;28;20056;-87
2022/11/17 11:08:59;;;;;;;7.78;6.63;;;7.00;99.90;;;;;;5022928;28;20119;-87
2022/11/17 11:11:43;;;;;;;8.00;6.70;;;6.90;99.90;;;;;;5040089;28;20476;-86
2022/11/17 11:14:23;;;;;;;3.97;3.58;;;6.80;99.90;;;;;;5055928;28;20127;-86
2022/11/17 11:16:49;;;;;;;7.57;6.78;;;8.40;99.90;;;;;;5039416;28;20127;-89
2022/11/17 11:19:16;;;;;;;4.80;4.15;;;6.90;99.90;;;;;;5049484;28;20050;-87
2022/11/17 11:21:48;;;;;;;6.57;5.55;;;6.80;99.90;;;;;;5023475;28;20040;-88
2022/11/17 11:24:18;;;;;;;6.50;5.88;;;6.80;99.90;;;;;;5054691;28;20045;-88
2022/11/17 11:27:02;;;;;;;8.93;6.97;;;7.00;99.90;;;;;;5048250;28;20059;-90
2022/11/17 11:29:31;;;;;;;;;;;6.80;99.90;;;;;;5021808;28;20076;-87
2022/11/17 11:32:08;;;;;;;8.40;7.20;;;6.80;99.90;;;;;;5047831;28;19971;-87
2022/11/17 11:34:49;;;;;;;9.23;6.65;;;6.80;99.90;;;;;;5044271;28;20045;-87
2022/11/17 11:37:15;;;;;;;10.27;7.25;;;6.20;99.90;;;;;;5048565;28;20057;-86
2022/11/17 11:39:47;;;;;;;10.43;7.25;;;6.80;99.90;;;;;;5032126;28;20045;-86
2022/11/17 11:42:21;;;;;;;11.07;8.13;;;6.80;99.90;;;;;;5049879;28;20099;-87
2022/11/17 11:44:58;;;;;;;11.13;8.20;;;8.40;99.90;;;;;;5039622;28;20436;-88
2022/11/17 11:47:37;;;;;;;12.57;7.78;;;6.80;99.90;;;;;;5039684;28;20068;-87
2022/11/17 11:50:20;;;;;;;10.48;8.50;;;6.80;99.90;;;;;;5051248;28;20049;-88
2022/11/17 11:52:52;;;;;;;12.27;7.28;;;6.80;99.90;;;;;;5032974;28;20044;-88
2022/11/17 11:55:28;;;;;;;11.20;7.75;;;6.80;99.90;;;;;;5055798;28;20552;-88
2022/11/17 11:58:14;;;;;;;11.15;7.20;;;6.90;99.90;;;;;;5010278;28;20049;-88
2022/11/17 12:00:40;;;;;;;9.82;7.13;;;6.90;99.90;;;;;;5024510;28;20174;-90
2022/11/17 12:03:15;;;;;;;7.07;5.20;;;7.20;99.90;;;;;;5036376;28;20052;-87
2022/11/17 12:08:58;;;;;;;5.70;4.80;;;7.20;99.90;;;;;;5059052;28;20062;-87
2022/11/17 12:14:13;;;;;;;7.95;6.20;;;7.10;99.90;;;;;;5040332;28;20396;-88
2022/11/17 12:16:43;;;;;;;7.60;5.88;;;7.00;99.90;;;;;;5022720;28;20105;-88
2022/11/17 12:19:43;;;;;;;7.32;6.32;;;7.00;99.90;;;;;;5039159;28;20044;-89
2022/11/17 12:22:33;;;;;;;6.13;5.18;;;7.00;99.90;;;;;;5018260;28;20041;-87
2022/11/17 12:25:02;;;;;;;6.45;5.18;;;7.10;99.90;;;;;;5026399;28;20408;-87
2022/11/17 12:27:41;;;;;;;5.50;4.63;;;7.60;99.90;;;;;;5022798;28;20090;-88
2022/11/17 12:30:31;;;;;;;13.02;7.88;;;7.20;99.90;;;;;;5037918;28;20083;-88
2022/11/17 12:32:58;;;;;;;7.43;5.70;;;7.10;99.90;;;;;;5058512;28;20117;-87
2022/11/17 12:35:38;;;;;;;6.55;5.35;;;7.10;99.90;;;;;;5022024;28;20048;-89
2022/11/17 12:38:13;;;;;;;5.82;5.18;;;7.20;99.90;;;;;;5013990;28;20061;-89
2022/11/17 12:40:39;;;;;;;7.38;6.25;;;7.20;99.90;;;;;;5032472;28;20055;-87
2022/11/17 12:43:26;;;;;;;4.93;4.40;;;7.20;99.90;;;;;;5054284;28;20080;-87
2022/11/17 12:45:52;;;;;;;8.23;4.82;;;7.30;99.90;;;;;;5057606;28;20364;-88
2022/11/17 12:48:22;;;;;;;6.85;4.95;;;7.40;99.90;;;;;;5060674;28;20048;-87
2022/11/17 12:51:15;;;;;;;6.70;5.95;;;7.50;99.90;;;;;;5047070;28;20056;-87
2022/11/17 12:54:00;;;;;;;6.93;5.97;;;6.00;99.90;;;;;;5047063;28;20044;-87
2022/11/17 12:56:31;;;;;;;6.25;4.60;;;7.30;99.90;;;;;;5061340;28;20027;-87
2022/11/17 12:59:10;;;;;;;5.85;5.00;;;7.40;99.90;;;;;;5056342;28;20071;-87
2022/11/17 13:01:58;;;;;;;9.00;5.80;;;7.40;99.90;;;;;;5057802;28;20055;-88
2022/11/17 13:04:43;;;;;;;7.10;4.93;;;7.40;99.90;;;;;;5025675;28;20060;-87
2022/11/17 13:07:19;;;;;;;6.32;4.97;;;7.50;99.90;;;;;;5024296;28;20157;-88
2022/11/17 13:09:48;;;;;;;7.03;5.93;;;7.60;99.90;;;;;;5023229;28;20052;-87
2022/11/17 13:12:19;;;;;;;5.00;3.97;;;7.50;99.90;;;;;;5034911;28;20041;-87
2022/11/17 13:15:01;;;;;;;9.63;5.82;;;7.60;99.90;;;;;;5022698;28;20500;-87
2022/11/17 13:17:38;;;;;;;4.97;4.47;;;7.50;99.90;;;;;;5028720;28;20083;-87
2022/11/17 13:20:22;;;;;;;4.95;4.32;;;7.60;99.90;;;;;;5060423;28;20057;-88
2022/11/17 13:23:18;;;;;;;;;;;7.70;99.90;;;;;;5049580;28;20076;-86
2022/11/17 13:25:44;;;;;;;5.45;4.72;;;7.80;99.90;;;;;;5072029;28;19928;-86
2022/11/17 13:28:25;;;;;;;6.18;5.47;;;7.80;99.90;;;;;;5005522;28;20055;-87
2022/11/17 13:30:51;;;;;;;5.20;3.60;;;7.70;99.90;;;;;;5038955;28;20079;-87
2022/11/17 13:33:20;;;;;;;5.07;4.57;;;7.60;99.90;;;;;;5038289;28;20409;-88
2022/11/17 13:35:46;;;;;;;6.43;5.57;;;7.70;99.90;;;;;;5022317;28;20048;-88
2022/11/17 13:38:17;;;;;;;6.53;5.82;;;7.70;99.90;;;;;;5021048;28;20053;-87
2022/11/17 13:40:43;;;;;;;7.40;6.57;;;7.60;99.90;;;;;;5022178;28;20464;-87